createdAt,value
2023-04-16T00:02:02.105Z,100967.97
2023-04-16T00:04:29.996Z,100953.22
2023-04-16T00:06:57.713Z,100944.09
2023-04-16T00:09:25.499Z,100954.94
2023-04-16T00:11:53.132Z,100954.50
2023-04-16T00:14:22.099Z,100962.31
2023-04-16T00:16:51.179Z,100961.38
2023-04-16T00:19:18.941Z,100966.22
2023-04-16T00:21:46.680Z,100950.03
2023-04-16T00:24:14.870Z,100967.00
2023-04-16T00:26:44.319Z,100972.47
2023-04-16T00:29:12.000Z,100968.59
2023-04-16T00:31:39.674Z,100957.25
2023-04-16T00:34:08.756Z,100970.09
2023-04-16T00:36:36.415Z,100950.97
2023-04-16T00:39:04.130Z,100958.13
2023-04-16T00:41:31.791Z,100971.78
2023-04-16T00:43:59.464Z,100964.94
2023-04-16T00:46:27.293Z,100970.22
2023-04-16T00:48:55.499Z,100951.63
2023-04-16T00:51:24.921Z,100948.50
2023-04-16T00:53:52.900Z,100980.94
2023-04-16T00:56:20.735Z,100972.41
2023-04-16T00:58:48.647Z,100972.66
2023-04-16T01:01:16.567Z,100987.88
2023-04-16T01:03:45.868Z,101001.03
2023-04-16T01:06:13.965Z,100995.56
2023-04-16T01:08:43.191Z,100994.84
2023-04-16T01:11:11.151Z,100996.06
2023-04-16T01:13:39.844Z,100993.25
2023-04-16T01:16:09.418Z,100989.03
2023-04-16T01:18:37.813Z,100989.97
2023-04-16T01:21:07.252Z,101007.66
2023-04-16T01:23:34.974Z,100997.91
2023-04-16T01:26:02.763Z,100999.81
2023-04-16T01:28:30.470Z,100998.38
2023-04-16T01:30:58.192Z,101005.78
2023-04-16T01:33:25.883Z,101000.13
2023-04-16T01:35:53.572Z,100996.34
2023-04-16T01:38:22.756Z,101021.78
2023-04-16T01:40:50.449Z,101008.38
2023-04-16T01:43:18.130Z,101010.34
2023-04-16T01:45:45.995Z,101010.28
2023-04-16T01:48:13.681Z,101012.72
2023-04-16T01:50:41.360Z,101019.94
2023-04-16T01:53:09.728Z,101008.56
2023-04-16T01:55:38.859Z,101005.84
2023-04-16T01:58:07.935Z,101012.59
2023-04-16T02:00:35.798Z,101003.72
2023-04-16T02:03:03.815Z,101003.84
2023-04-16T02:05:31.713Z,101000.97
2023-04-16T02:07:59.378Z,101010.63
2023-04-16T02:10:27.032Z,101000.97
2023-04-16T02:12:56.626Z,100996.63
2023-04-16T02:15:25.360Z,100996.09
2023-04-16T02:17:56.790Z,100996.88
2023-04-16T02:20:24.569Z,101010.78
2023-04-16T02:22:52.238Z,101003.13
2023-04-16T02:25:19.922Z,100997.06
2023-04-16T02:27:47.580Z,101012.13
2023-04-16T02:30:17.758Z,101001.75
2023-04-16T02:32:45.471Z,100997.31
2023-04-16T02:35:13.246Z,101020.81
2023-04-16T02:37:41.708Z,101010.34
2023-04-16T02:40:10.838Z,101008.22
2023-04-16T02:42:38.509Z,100995.72
2023-04-16T02:45:07.091Z,100991.03
2023-04-16T02:47:36.165Z,101000.59
2023-04-16T02:50:03.996Z,100986.47
2023-04-16T02:52:32.823Z,100994.91
2023-04-16T02:55:00.538Z,100995.13
2023-04-16T02:57:28.221Z,100997.13
2023-04-16T02:59:55.984Z,101002.28
2023-04-16T03:02:23.836Z,101006.56
2023-04-16T03:04:52.988Z,100999.78
2023-04-16T03:07:20.728Z,101002.72
2023-04-16T03:09:48.412Z,100996.06
2023-04-16T03:12:16.092Z,100999.22
2023-04-16T03:14:43.737Z,100993.94
2023-04-16T03:17:35.385Z,101010.75
2023-04-16T03:20:05.322Z,101011.97
2023-04-16T03:22:32.978Z,100998.50
2023-04-16T03:25:00.623Z,101003.41
2023-04-16T03:27:28.308Z,101006.94
2023-04-16T03:29:56.214Z,101027.84
2023-04-16T03:32:24.125Z,101022.09
2023-04-16T03:34:52.003Z,101027.41
2023-04-16T03:37:21.089Z,101016.59
2023-04-16T03:39:48.812Z,101035.28
2023-04-16T03:42:16.901Z,101031.69
2023-04-16T03:44:44.789Z,101043.88
2023-04-16T03:47:12.479Z,101027.94
2023-04-16T03:49:40.264Z,101028.25
2023-04-16T03:52:07.943Z,101018.81
2023-04-16T03:54:36.997Z,101033.13
2023-04-16T03:57:04.974Z,101035.97
2023-04-16T03:59:32.738Z,101047.06
2023-04-16T04:02:00.512Z,101026.78
2023-04-16T04:04:28.327Z,101044.53
2023-04-16T04:06:56.413Z,101040.28
2023-04-16T04:09:24.097Z,101020.97
2023-04-16T04:11:53.197Z,101047.28
2023-04-16T04:14:20.892Z,101024.56
2023-04-16T04:16:48.987Z,101059.41
2023-04-16T04:19:16.835Z,101039.66
2023-04-16T04:21:44.465Z,101043.69
2023-04-16T04:24:12.120Z,101032.69
2023-04-16T04:26:39.770Z,101055.88
2023-04-16T04:29:12.055Z,101049.41
2023-04-16T04:31:39.934Z,101037.75
2023-04-16T04:34:07.610Z,101044.88
2023-04-16T04:36:35.491Z,101058.28
2023-04-16T04:39:03.748Z,101068.44
2023-04-16T04:41:31.433Z,101073.63
2023-04-16T04:43:59.125Z,101058.31
2023-04-16T04:46:28.217Z,101054.19
2023-04-16T04:48:55.876Z,101062.63
2023-04-16T04:51:23.534Z,101063.94
2023-04-16T04:53:51.411Z,101069.81
2023-04-16T04:56:19.106Z,101076.25
2023-04-16T04:58:46.828Z,101081.28
2023-04-16T05:01:14.597Z,101072.09
2023-04-16T05:03:43.791Z,101074.59
2023-04-16T05:06:11.612Z,101072.94
2023-04-16T05:08:39.294Z,101076.03
2023-04-16T05:11:06.950Z,101074.22
2023-04-16T05:13:34.613Z,101086.56
2023-04-16T05:16:02.503Z,101102.25
2023-04-16T05:18:31.129Z,101091.34
2023-04-16T05:21:00.234Z,101110.47
2023-04-16T05:23:27.914Z,101097.44
2023-04-16T05:25:55.670Z,101101.94
2023-04-16T05:28:23.394Z,101111.09
2023-04-16T05:30:51.133Z,101109.59
2023-04-16T05:33:18.895Z,101104.97
2023-04-16T05:35:46.582Z,101117.38
2023-04-16T05:38:18.309Z,101118.72
2023-04-16T05:40:46.144Z,101105.44
2023-04-16T05:43:13.836Z,101119.63
2023-04-16T05:45:41.614Z,101127.47
2023-04-16T05:48:10.126Z,101123.78
2023-04-16T05:50:37.832Z,101140.00
2023-04-16T05:53:07.205Z,101118.31
2023-04-16T05:55:36.877Z,101126.25
2023-04-16T05:58:05.266Z,101134.91
2023-04-16T06:00:33.102Z,101128.97
2023-04-16T06:03:01.181Z,101137.44
2023-04-16T06:05:29.127Z,101153.03
2023-04-16T06:07:57.219Z,101137.97
2023-04-16T06:10:24.986Z,101153.47
2023-04-16T06:12:54.071Z,101137.16
2023-04-16T06:15:21.961Z,101147.13
2023-04-16T06:17:50.430Z,101139.16
2023-04-16T06:20:18.185Z,101135.50
2023-04-16T06:22:45.859Z,101149.28
2023-04-16T06:25:14.008Z,101143.09
2023-04-16T06:27:42.469Z,101144.19
2023-04-16T06:30:14.568Z,101153.13
2023-04-16T06:32:42.334Z,101163.59
2023-04-16T06:35:10.547Z,101163.72
2023-04-16T06:37:38.209Z,101170.00
2023-04-16T06:40:06.793Z,101172.06
2023-04-16T06:42:34.492Z,101168.38
2023-04-16T06:45:02.493Z,101162.91
2023-04-16T06:47:31.581Z,101170.44
2023-04-16T06:49:59.604Z,101175.06
2023-04-16T06:52:27.316Z,101167.56
2023-04-16T06:54:55.024Z,101176.56
2023-04-16T06:57:22.701Z,101177.44
2023-04-16T06:59:50.351Z,101170.41
2023-04-16T07:02:18.212Z,101182.66
2023-04-16T07:04:47.332Z,101175.09
2023-04-16T07:07:15.041Z,101179.91
2023-04-16T07:09:42.902Z,101185.69
2023-04-16T07:12:11.796Z,101195.31
2023-04-16T07:14:39.448Z,101193.44
2023-04-16T07:17:07.116Z,101199.84
2023-04-16T07:19:35.564Z,101204.44
2023-04-16T07:22:05.220Z,101201.09
2023-04-16T07:24:33.104Z,101192.31
2023-04-16T07:30:18.642Z,101206.38
2023-04-16T07:32:46.375Z,101212.66
2023-04-16T07:35:14.213Z,101199.41
2023-04-16T07:37:43.249Z,101202.97
2023-04-16T07:40:11.479Z,101218.63
2023-04-16T07:42:39.146Z,101204.50
2023-04-16T07:45:07.917Z,101219.19
2023-04-16T07:47:35.713Z,101210.31
2023-04-16T07:50:03.632Z,101224.00
2023-04-16T07:52:31.357Z,101203.75
2023-04-16T07:55:00.467Z,101227.41
2023-04-16T07:57:28.151Z,101208.13
2023-04-16T07:59:55.847Z,101207.88
2023-04-16T08:02:23.838Z,101221.03
2023-04-16T08:04:51.727Z,101226.09
2023-04-16T08:07:19.570Z,101230.31
2023-04-16T08:09:53.019Z,101228.94
2023-04-16T08:12:22.356Z,101250.78
2023-04-16T08:14:50.148Z,101246.91
2023-04-16T08:17:17.975Z,101237.97
2023-04-16T08:19:45.984Z,101240.34
2023-04-16T08:22:13.752Z,101252.69
2023-04-16T08:24:41.619Z,101248.94
2023-04-16T08:27:18.666Z,101245.03
2023-04-16T08:29:48.906Z,101272.34
2023-04-16T08:32:16.614Z,101249.88
2023-04-16T08:34:44.394Z,101257.94
2023-04-16T08:37:12.138Z,101270.59
2023-04-16T08:39:39.866Z,101270.69
2023-04-16T08:42:13.087Z,101271.63
2023-04-16T08:44:46.429Z,101257.81
2023-04-16T08:47:17.229Z,101262.16
2023-04-16T08:49:46.064Z,101266.88
2023-04-16T08:52:17.326Z,101284.34
2023-04-16T08:54:56.757Z,101278.53
2023-04-16T08:57:25.469Z,101272.06
2023-04-16T08:59:53.400Z,101268.16
2023-04-16T09:02:23.079Z,101279.28
2023-04-16T09:04:51.393Z,101285.53
2023-04-16T09:07:20.912Z,101287.78
2023-04-16T09:09:50.116Z,101262.41
2023-04-16T09:12:18.885Z,101290.44
2023-04-16T09:14:49.987Z,101282.94
2023-04-16T09:17:18.121Z,101281.81
2023-04-16T09:19:47.749Z,101271.50
2023-04-16T09:22:15.574Z,101298.44
2023-04-16T09:24:43.569Z,101280.56
2023-04-16T09:27:12.139Z,101279.97
2023-04-16T09:29:41.453Z,101303.44
2023-04-16T09:32:10.635Z,101289.16
2023-04-16T09:34:56.067Z,101282.19
2023-04-16T09:37:24.091Z,101296.66
2023-04-16T09:39:56.435Z,101295.53
2023-04-16T09:42:27.120Z,101297.38
2023-04-16T09:44:57.244Z,101304.13
2023-04-16T09:47:27.863Z,101302.41
2023-04-16T09:50:00.143Z,101287.31
2023-04-16T09:52:28.202Z,101302.00
2023-04-16T09:54:55.998Z,101312.34
2023-04-16T09:57:24.752Z,101288.59
2023-04-16T09:59:55.040Z,101304.31
2023-04-16T10:02:23.767Z,101309.38
2023-04-16T10:04:52.437Z,101295.09
2023-04-16T10:07:22.067Z,101292.22
2023-04-16T10:09:50.692Z,101304.00
2023-04-16T10:12:18.413Z,101294.81
2023-04-16T10:14:48.263Z,101317.59
2023-04-16T10:17:17.897Z,101322.94
2023-04-16T10:19:45.821Z,101301.06
2023-04-16T10:22:13.812Z,101311.22
2023-04-16T10:24:43.001Z,101301.50
2023-04-16T10:27:10.795Z,101316.25
2023-04-16T10:29:38.898Z,101312.84
2023-04-16T10:32:08.034Z,101303.84
2023-04-16T10:34:36.537Z,101313.66
2023-04-16T10:37:04.404Z,101322.53
2023-04-16T10:39:34.838Z,101309.22
2023-04-16T10:42:11.833Z,101319.72
2023-04-16T10:44:43.510Z,101324.97
2023-04-16T10:47:14.379Z,101312.00
2023-04-16T10:49:42.673Z,101307.81
2023-04-16T10:52:12.573Z,101316.06
2023-04-16T10:54:41.030Z,101300.47
2023-04-16T10:57:12.302Z,101300.19
2023-04-16T10:59:40.425Z,101302.78
2023-04-16T11:02:09.708Z,101293.28
2023-04-16T11:04:39.002Z,101318.78
2023-04-16T11:07:17.404Z,101297.47
2023-04-16T11:09:47.083Z,101311.69
2023-04-16T11:12:18.473Z,101296.97
2023-04-16T11:14:49.123Z,101284.59
2023-04-16T11:17:17.340Z,101299.53
2023-04-16T11:19:45.717Z,101299.34
2023-04-16T11:22:17.104Z,101287.69
2023-04-16T11:24:45.649Z,101314.81
2023-04-16T11:27:14.658Z,101296.97
2023-04-16T11:29:46.313Z,101289.44
2023-04-16T11:32:23.901Z,101323.28
2023-04-16T11:34:52.111Z,101300.06
2023-04-16T11:37:22.551Z,101295.13
2023-04-16T11:39:51.631Z,101321.50
2023-04-16T11:42:23.777Z,101312.44
2023-04-16T11:45:01.513Z,101324.84
2023-04-16T11:47:31.449Z,101303.13
2023-04-16T11:49:59.874Z,101322.19
2023-04-16T11:52:30.975Z,101316.84
2023-04-16T11:54:58.956Z,101318.91
2023-04-16T11:57:28.403Z,101323.78
2023-04-16T12:00:02.011Z,101327.63
2023-04-16T12:02:39.151Z,101325.34
2023-04-16T12:05:09.788Z,101327.00
2023-04-16T12:07:46.814Z,101344.19
2023-04-16T12:10:14.620Z,101334.75
2023-04-16T12:12:42.328Z,101322.31
2023-04-16T12:15:14.433Z,101326.91
2023-04-16T12:17:42.432Z,101348.75
2023-04-16T12:20:11.810Z,101333.56
2023-04-16T12:22:40.657Z,101332.03
2023-04-16T12:25:12.194Z,101315.41
2023-04-16T12:27:48.004Z,101330.69
2023-04-16T12:30:19.217Z,101342.78
2023-04-16T12:35:32.651Z,101328.44
2023-04-16T12:38:00.643Z,101339.50
2023-04-16T12:40:29.059Z,101347.78
2023-04-16T12:42:57.458Z,101350.84
2023-04-16T12:45:26.712Z,101331.41
2023-04-16T12:47:54.488Z,101334.06
2023-04-16T12:50:22.410Z,101335.44
2023-04-16T12:52:52.595Z,101340.28
2023-04-16T12:55:20.518Z,101325.25
2023-04-16T12:57:49.077Z,101322.03
2023-04-16T13:00:17.677Z,101337.63
2023-04-16T13:02:47.387Z,101336.41
2023-04-16T13:05:16.628Z,101327.22
2023-04-16T13:07:44.435Z,101342.72
2023-04-16T13:10:13.285Z,101330.34
2023-04-16T13:12:41.104Z,101341.97
2023-04-16T13:15:10.522Z,101350.31
2023-04-16T13:17:38.386Z,101342.16
2023-04-16T13:20:09.077Z,101338.03
2023-04-16T13:22:37.060Z,101344.00
2023-04-16T13:25:05.038Z,101352.66
2023-04-16T13:27:32.925Z,101326.91
2023-04-16T13:30:00.662Z,101326.38
2023-04-16T13:32:28.935Z,101349.47
2023-04-16T13:34:56.648Z,101332.25
2023-04-16T13:37:26.095Z,101322.88
2023-04-16T13:39:53.780Z,101315.25
2023-04-16T13:42:22.237Z,101314.78
2023-04-16T13:44:53.128Z,101331.06
2023-04-16T13:47:20.950Z,101343.09
2023-04-16T13:49:48.737Z,101328.59
2023-04-16T13:52:16.817Z,101328.53
2023-04-16T13:54:45.959Z,101339.31
2023-04-16T13:57:13.802Z,101329.44
2023-04-16T13:59:41.591Z,101341.56
2023-04-16T14:02:12.631Z,101332.44
2023-04-16T14:04:40.488Z,101343.88
2023-04-16T14:07:08.837Z,101324.38
2023-04-16T14:09:38.000Z,101316.22
2023-04-16T14:12:07.688Z,101312.72
2023-04-16T14:14:35.390Z,101319.94
2023-04-16T14:17:04.265Z,101309.34
2023-04-16T14:19:32.048Z,101308.03
2023-04-16T14:21:59.915Z,101323.88
2023-04-16T14:24:27.570Z,101319.63
2023-04-16T14:26:55.548Z,101311.44
2023-04-16T14:29:24.646Z,101316.03
2023-04-16T14:31:52.729Z,101308.69
2023-04-16T14:34:20.513Z,101305.25
2023-04-16T14:36:49.148Z,101312.97
2023-04-16T14:39:17.535Z,101318.50
2023-04-16T14:41:45.262Z,101321.63
2023-04-16T14:44:13.049Z,101311.69
2023-04-16T14:46:42.795Z,101326.72
2023-04-16T14:49:12.280Z,101326.66
2023-04-16T14:51:40.441Z,101308.56
2023-04-16T14:54:08.307Z,101315.53
2023-04-16T14:56:36.119Z,101303.28
2023-04-16T14:59:04.116Z,101321.53
2023-04-16T15:01:32.326Z,101319.41
2023-04-16T15:04:03.114Z,101315.16
2023-04-16T15:06:32.378Z,101325.47
2023-04-16T15:09:00.255Z,101332.88
2023-04-16T15:11:28.833Z,101318.97
2023-04-16T15:13:56.561Z,101315.34
2023-04-16T15:16:24.749Z,101324.53
2023-04-16T15:18:52.708Z,101295.94
2023-04-16T15:21:22.140Z,101301.25
2023-04-16T15:23:49.870Z,101306.56
2023-04-16T15:26:17.597Z,101304.97
2023-04-16T15:31:30.688Z,101314.00
2023-04-16T15:33:59.937Z,101326.59
2023-04-16T15:36:29.249Z,101303.44
2023-04-16T15:38:57.002Z,101307.13
2023-04-16T15:41:25.582Z,101327.53
2023-04-16T15:43:53.300Z,101312.63
2023-04-16T15:46:21.292Z,101314.22
2023-04-16T15:48:49.081Z,101324.22
2023-04-16T15:51:17.128Z,101321.28
2023-04-16T15:53:46.356Z,101345.72
2023-04-16T15:56:14.293Z,101322.84
2023-04-16T15:58:41.985Z,101319.66
2023-04-16T16:01:09.962Z,101323.69
2023-04-16T16:03:37.800Z,101334.00
2023-04-16T16:06:07.689Z,101326.25
2023-04-16T16:08:37.815Z,101325.59
2023-04-16T16:11:16.150Z,101318.63
2023-04-16T16:13:43.843Z,101327.19
2023-04-16T16:16:11.847Z,101324.31
2023-04-16T16:18:39.567Z,101325.03
2023-04-16T16:21:08.089Z,101326.06
2023-04-16T16:23:36.123Z,101323.44
2023-04-16T16:26:06.128Z,101330.53
2023-04-16T16:28:37.661Z,101346.91
2023-04-16T16:31:06.069Z,101327.41
2023-04-16T16:33:34.300Z,101336.69
2023-04-16T16:36:02.036Z,101329.41
2023-04-16T16:38:29.748Z,101331.41
2023-04-16T16:40:57.474Z,101339.56
2023-04-16T16:43:25.161Z,101344.66
2023-04-16T16:45:54.319Z,101348.59
2023-04-16T16:48:22.263Z,101339.78
2023-04-16T16:51:38.869Z,101335.72
2023-04-16T16:53:38.532Z,101340.09
2023-04-16T16:56:07.161Z,101352.53
2023-04-16T16:58:35.129Z,101347.72
2023-04-16T17:01:04.378Z,101345.53
2023-04-16T17:06:00.185Z,101339.06
2023-04-16T17:08:28.961Z,101330.31
2023-04-16T17:10:56.644Z,101339.75
2023-04-16T17:13:25.282Z,101340.28
2023-04-16T17:15:52.984Z,101356.88
2023-04-16T17:18:22.211Z,101350.25
2023-04-16T17:20:49.951Z,101337.09
2023-04-16T17:23:17.686Z,101341.78
2023-04-16T17:25:45.466Z,101331.03
2023-04-16T17:28:13.226Z,101349.47
2023-04-16T17:30:40.933Z,101347.22
2023-04-16T17:33:08.692Z,101348.94
2023-04-16T17:35:37.894Z,101332.81
2023-04-16T17:38:05.976Z,101347.19
2023-04-16T17:40:33.661Z,101354.44
2023-04-16T17:43:01.655Z,101348.97
2023-04-16T17:45:29.364Z,101353.16
2023-04-16T17:47:57.093Z,101337.59
2023-04-16T17:50:24.908Z,101361.38
2023-04-16T17:52:54.288Z,101351.72
2023-04-16T17:55:22.054Z,101364.97
2023-04-16T17:57:49.999Z,101357.25
2023-04-16T18:00:18.601Z,101350.44
2023-04-16T18:02:46.398Z,101374.19
2023-04-16T18:05:14.240Z,101365.06
2023-04-16T18:07:43.634Z,101366.19
2023-04-16T18:10:34.879Z,101364.81
2023-04-16T18:13:02.610Z,101373.00
2023-04-16T18:15:30.856Z,101369.75
2023-04-16T18:17:58.612Z,101361.63
2023-04-16T18:20:27.195Z,101378.75
2023-04-16T18:22:54.956Z,101368.09
2023-04-16T18:25:33.932Z,101390.19
2023-04-16T18:28:03.842Z,101375.13
2023-04-16T18:30:31.987Z,101390.31
2023-04-16T18:35:34.091Z,101407.63
2023-04-16T18:38:02.312Z,101397.56
2023-04-16T18:40:35.043Z,101403.47
2023-04-16T18:43:02.889Z,101403.00
2023-04-16T18:45:30.895Z,101410.22
2023-04-16T18:47:59.699Z,101408.56
2023-04-16T18:50:27.509Z,101416.47
2023-04-16T18:52:55.247Z,101406.28
2023-04-16T18:55:23.083Z,101412.50
2023-04-16T18:57:52.298Z,101419.72
2023-04-16T19:00:20.557Z,101421.25
2023-04-16T19:02:48.393Z,101420.78
2023-04-16T19:05:16.230Z,101415.91
2023-04-16T19:07:44.017Z,101402.69
2023-04-16T19:10:12.239Z,101422.94
2023-04-16T19:12:39.962Z,101411.56
2023-04-16T19:15:09.653Z,101411.31
2023-04-16T19:17:37.407Z,101436.84
2023-04-16T19:20:10.557Z,101431.06
2023-04-16T19:22:38.287Z,101438.16
2023-04-16T19:25:07.244Z,101418.63
2023-04-16T19:27:35.579Z,101434.91
2023-04-16T19:30:04.017Z,101436.84
2023-04-16T19:32:33.130Z,101445.31
2023-04-16T19:35:00.876Z,101445.19
2023-04-16T19:37:28.556Z,101437.78
2023-04-16T19:39:56.681Z,101443.03
2023-04-16T19:42:24.514Z,101430.31
2023-04-16T19:44:52.281Z,101428.34
2023-04-16T19:47:20.386Z,101421.34
2023-04-16T19:49:49.555Z,101454.78
2023-04-16T19:52:17.389Z,101434.53
2023-04-16T19:54:45.293Z,101439.69
2023-04-16T19:57:12.968Z,101436.31
2023-04-16T19:59:40.674Z,101452.44
2023-04-16T20:02:08.326Z,101438.31
2023-04-16T20:04:36.615Z,101444.28
2023-04-16T20:07:05.864Z,101436.41
2023-04-16T20:09:33.547Z,101441.88
2023-04-16T20:12:02.058Z,101455.97
2023-04-16T20:14:30.079Z,101447.03
2023-04-16T20:17:19.523Z,101445.94
2023-04-16T20:19:49.600Z,101446.13
2023-04-16T20:22:19.190Z,101442.00
2023-04-16T20:24:48.291Z,101460.69
2023-04-16T20:27:16.826Z,101435.44
2023-04-16T20:29:46.396Z,101436.94
2023-04-16T20:32:14.071Z,101444.03
2023-04-16T20:34:42.931Z,101455.72
2023-04-16T20:37:10.646Z,101445.34
2023-04-16T20:39:40.166Z,101454.66
2023-04-16T20:42:10.112Z,101444.66
2023-04-16T20:44:41.282Z,101428.16
2023-04-16T20:47:09.272Z,101443.81
2023-04-16T20:49:38.332Z,101444.66
2023-04-16T20:52:07.438Z,101435.19
2023-04-16T20:54:35.167Z,101439.94
2023-04-16T20:57:05.092Z,101451.94
2023-04-16T20:59:33.084Z,101461.13
2023-04-16T21:02:01.610Z,101453.25
2023-04-16T21:04:29.675Z,101441.94
2023-04-16T21:06:57.487Z,101463.56
2023-04-16T21:09:25.169Z,101445.59
2023-04-16T21:11:52.968Z,101457.72
2023-04-16T21:14:22.100Z,101439.00
2023-04-16T21:16:49.838Z,101444.19
2023-04-16T21:19:17.563Z,101455.16
2023-04-16T21:21:45.479Z,101451.13
2023-04-16T21:24:13.180Z,101454.44
2023-04-16T21:26:40.942Z,101454.78
2023-04-16T21:29:08.866Z,101458.19
2023-04-16T21:31:38.077Z,101460.91
2023-04-16T21:34:05.861Z,101469.31
2023-04-16T21:36:34.212Z,101449.50
2023-04-16T21:39:02.271Z,101462.44
2023-04-16T21:41:29.957Z,101455.59
2023-04-16T21:43:57.664Z,101454.78
2023-04-16T21:46:26.383Z,101461.84
2023-04-16T21:48:55.516Z,101461.63
2023-04-16T21:51:29.040Z,101454.78
2023-04-16T21:53:57.086Z,101464.00
2023-04-16T21:56:24.889Z,101471.47
2023-04-16T21:58:52.675Z,101456.44
2023-04-16T22:01:20.494Z,101454.44
2023-04-16T22:03:50.986Z,101466.22
2023-04-16T22:06:20.939Z,101459.53
2023-04-16T22:08:50.079Z,101464.59
2023-04-16T22:11:17.954Z,101472.69
2023-04-16T22:13:46.422Z,101481.28
2023-04-16T22:16:14.432Z,101466.53
2023-04-16T22:18:42.820Z,101457.63
2023-04-16T22:21:10.561Z,101460.44
2023-04-16T22:23:39.651Z,101458.44
2023-04-16T22:26:08.405Z,101476.09
2023-04-16T22:28:36.141Z,101457.97
2023-04-16T22:31:04.108Z,101463.03
2023-04-16T22:33:32.164Z,101457.38
2023-04-16T22:36:00.570Z,101458.56
2023-04-16T22:38:28.264Z,101461.63
2023-04-16T22:40:57.372Z,101452.59
2023-04-16T22:43:25.061Z,101462.75
2023-04-16T22:46:02.430Z,101471.69
2023-04-16T22:48:30.118Z,101455.94
2023-04-16T22:50:57.910Z,101471.50
2023-04-16T22:53:25.720Z,101466.19
2023-04-16T22:55:53.404Z,101463.94
2023-04-16T22:58:22.563Z,101458.56
2023-04-16T23:00:51.849Z,101469.50
2023-04-16T23:03:19.648Z,101472.94
2023-04-16T23:05:47.461Z,101472.34
2023-04-16T23:08:15.175Z,101470.78
2023-04-16T23:10:43.217Z,101467.16
2023-04-16T23:13:11.193Z,101464.44
2023-04-16T23:15:40.663Z,101480.66
2023-04-16T23:18:08.399Z,101483.88
2023-04-16T23:20:36.554Z,101478.22
2023-04-16T23:23:04.710Z,101469.75
2023-04-16T23:25:32.929Z,101473.06
2023-04-16T23:28:00.715Z,101470.47
2023-04-16T23:30:28.429Z,101471.97
2023-04-16T23:32:57.550Z,101475.06
2023-04-16T23:35:25.414Z,101470.09
2023-04-16T23:37:53.125Z,101468.53
2023-04-16T23:40:21.106Z,101485.53
2023-04-16T23:42:49.034Z,101488.72
2023-04-16T23:45:16.984Z,101490.34
2023-04-16T23:47:44.822Z,101484.16
2023-04-16T23:50:14.425Z,101494.38
2023-04-16T23:52:42.139Z,101491.88
2023-04-16T23:55:10.396Z,101491.78
2023-04-16T23:57:38.417Z,101486.19
